createdAt,value
2019-04-11T00:00:37.684Z,1008.42
2019-04-11T00:01:44.727Z,1008.46
2019-04-11T00:02:38.656Z,1008.43
2019-04-11T00:03:37.695Z,1008.46
2019-04-11T00:04:37.958Z,1008.48
2019-04-11T00:05:37.689Z,1008.46
2019-04-11T00:06:37.615Z,1008.50
2019-04-11T00:07:38.528Z,1008.50
2019-04-11T00:08:38.569Z,1008.50
2019-04-11T00:09:38.708Z,1008.50
2019-04-11T00:10:37.596Z,1008.53
2019-04-11T00:11:37.816Z,1008.51
2019-04-11T00:12:37.544Z,1008.54
2019-04-11T00:13:37.538Z,1008.58
2019-04-11T00:14:38.074Z,1008.55
2019-04-11T00:15:37.519Z,1008.57
2019-04-11T00:16:37.547Z,1008.53
2019-04-11T00:17:38.341Z,1008.53
2019-04-11T00:18:37.484Z,1008.57
2019-04-11T00:19:37.760Z,1008.62
2019-04-11T00:20:37.462Z,1008.57
2019-04-11T00:21:38.064Z,1008.55
2019-04-11T00:22:37.472Z,1008.55
2019-04-11T00:23:38.568Z,1008.57
2019-04-11T00:24:37.412Z,1008.62
2019-04-11T00:25:37.810Z,1008.58
2019-04-11T00:26:38.188Z,1008.58
2019-04-11T00:27:37.383Z,1008.57
2019-04-11T00:28:37.514Z,1008.54
2019-04-11T00:29:38.540Z,1008.55
2019-04-11T00:30:48.362Z,1008.55
2019-04-11T00:31:37.334Z,1008.58
2019-04-11T00:32:37.977Z,1008.55
2019-04-11T00:33:38.190Z,1008.57
2019-04-11T00:34:37.416Z,1008.55
2019-04-11T00:35:37.295Z,1008.55
2019-04-11T00:36:37.276Z,1008.52
2019-04-11T00:37:37.269Z,1008.54
2019-04-11T00:38:38.259Z,1008.56
2019-04-11T00:39:37.540Z,1008.53
2019-04-11T00:40:37.489Z,1008.54
2019-04-11T00:41:37.724Z,1008.58
2019-04-11T00:42:37.219Z,1008.59
2019-04-11T00:43:40.413Z,1008.61
2019-04-11T00:44:37.190Z,1008.58
2019-04-11T00:45:38.079Z,1008.61
2019-04-11T00:46:37.258Z,1008.61
2019-04-11T00:47:38.261Z,1008.62
2019-04-11T00:48:37.743Z,1008.66
2019-04-11T00:49:37.137Z,1008.63
2019-04-11T00:50:37.323Z,1008.65
2019-04-11T00:51:38.129Z,1008.63
2019-04-11T00:52:37.214Z,1008.67
2019-04-11T00:53:38.204Z,1008.66
2019-04-11T00:54:37.080Z,1008.66
2019-04-11T00:55:37.697Z,1008.67
2019-04-11T00:56:37.067Z,1008.66
2019-04-11T00:57:37.175Z,1008.67
2019-04-11T00:58:38.054Z,1008.68
2019-04-11T00:59:37.024Z,1008.69
2019-04-11T01:00:38.324Z,1008.66
2019-04-11T01:01:47.161Z,1008.70
2019-04-11T01:02:37.771Z,1008.72
2019-04-11T01:03:38.089Z,1008.68
2019-04-11T01:04:37.112Z,1008.74
2019-04-11T01:05:37.353Z,1008.70
2019-04-11T01:06:36.946Z,1008.76
2019-04-11T01:07:36.942Z,1008.75
2019-04-11T01:08:37.791Z,1008.75
2019-04-11T01:09:36.927Z,1008.72
2019-04-11T01:10:36.906Z,1008.74
2019-04-11T01:11:37.868Z,1008.76
2019-04-11T01:12:36.884Z,1008.79
2019-04-11T01:13:44.730Z,1008.77
2019-04-11T01:14:38.658Z,1008.77
2019-04-11T01:15:36.870Z,1008.76
2019-04-11T01:16:36.838Z,1008.75
2019-04-11T01:17:37.106Z,1008.77
2019-04-11T01:18:36.824Z,1008.78
2019-04-11T01:19:36.811Z,1008.79
2019-04-11T01:20:37.722Z,1008.80
2019-04-11T01:21:36.903Z,1008.77
2019-04-11T01:22:36.781Z,1008.78
2019-04-11T01:23:37.351Z,1008.84
2019-04-11T01:24:36.757Z,1008.81
2019-04-11T01:25:36.903Z,1008.80
2019-04-11T01:26:37.165Z,1008.82
2019-04-11T01:27:36.722Z,1008.82
2019-04-11T01:28:36.716Z,1008.83
2019-04-11T01:29:37.698Z,1008.85
2019-04-11T01:30:36.776Z,1008.82
2019-04-11T01:31:37.774Z,1008.84
2019-04-11T01:32:50.641Z,1008.84
2019-04-11T01:33:36.657Z,1008.84
2019-04-11T01:34:37.091Z,1008.87
2019-04-11T01:35:37.377Z,1008.84
2019-04-11T01:36:37.414Z,1008.88
2019-04-11T01:37:36.720Z,1008.86
2019-04-11T01:38:36.748Z,1008.84
2019-04-11T01:39:37.138Z,1008.85
2019-04-11T01:40:36.576Z,1008.88
2019-04-11T01:41:36.568Z,1008.87
2019-04-11T01:42:37.617Z,1008.87
2019-04-11T01:43:37.765Z,1008.80
2019-04-11T01:44:36.742Z,1008.86
2019-04-11T01:45:36.526Z,1008.84
2019-04-11T01:46:36.517Z,1008.86
2019-04-11T01:47:37.391Z,1008.81
2019-04-11T01:48:36.545Z,1008.84
2019-04-11T01:49:36.590Z,1008.85
2019-04-11T01:50:37.047Z,1008.85
2019-04-11T01:51:36.456Z,1008.86
2019-04-11T01:52:36.452Z,1008.85
2019-04-11T01:53:37.354Z,1008.90
2019-04-11T01:54:37.579Z,1008.85
2019-04-11T01:55:36.737Z,1008.89
2019-04-11T01:56:37.025Z,1008.89
2019-04-11T01:57:36.398Z,1008.86
2019-04-11T01:58:36.382Z,1008.88
2019-04-11T01:59:37.467Z,1008.88
2019-04-11T02:00:36.618Z,1008.87
2019-04-11T02:01:36.998Z,1008.86
2019-04-11T02:02:36.866Z,1008.91
2019-04-11T02:03:49.729Z,1008.89
2019-04-11T02:04:37.129Z,1008.89
2019-04-11T02:05:36.979Z,1008.92
2019-04-11T02:06:36.337Z,1008.96
2019-04-11T02:07:36.548Z,1008.94
2019-04-11T02:08:37.514Z,1008.93
2019-04-11T02:09:36.265Z,1008.93
2019-04-11T02:10:37.087Z,1008.93
2019-04-11T02:11:37.275Z,1008.96
2019-04-11T02:12:37.359Z,1008.95
2019-04-11T02:13:36.334Z,1008.95
2019-04-11T02:14:36.225Z,1008.91
2019-04-11T02:15:36.651Z,1008.94
2019-04-11T02:16:36.925Z,1008.94
2019-04-11T02:17:37.010Z,1008.94
2019-04-11T02:18:37.304Z,1008.98
2019-04-11T02:19:36.396Z,1008.95
2019-04-11T02:20:36.888Z,1008.92
2019-04-11T02:21:36.132Z,1008.96
2019-04-11T02:22:36.117Z,1008.98
2019-04-11T02:23:37.212Z,1008.96
2019-04-11T02:24:36.277Z,1008.96
2019-04-11T02:25:36.640Z,1008.99
2019-04-11T02:26:36.080Z,1008.96
2019-04-11T02:27:36.068Z,1009.00
2019-04-11T02:28:37.015Z,1009.01
2019-04-11T02:29:37.290Z,1009.01
2019-04-11T02:30:38.173Z,1009.00
2019-04-11T02:31:36.931Z,1009.02
2019-04-11T02:32:36.985Z,1008.99
2019-04-11T02:33:37.136Z,1009.01
2019-04-11T02:34:50.476Z,1009.03
2019-04-11T02:35:37.323Z,1009.02
2019-04-11T02:36:38.254Z,1009.04
2019-04-11T02:37:37.784Z,1009.02
2019-04-11T02:38:37.330Z,1009.05
2019-04-11T02:39:35.976Z,1009.06
2019-04-11T02:40:36.727Z,1009.03
2019-04-11T02:41:38.078Z,1009.01
2019-04-11T02:42:35.933Z,1009.07
2019-04-11T02:43:36.525Z,1009.04
2019-04-11T02:44:52.733Z,1009.05
2019-04-11T02:45:51.750Z,1009.09
2019-04-11T02:46:46.995Z,1009.07
2019-04-11T02:47:39.120Z,1009.12
2019-04-11T02:48:37.530Z,1009.12
2019-04-11T02:49:35.928Z,1009.06
2019-04-11T02:50:37.133Z,1009.09
2019-04-11T02:51:36.864Z,1009.11
2019-04-11T02:52:37.644Z,1009.12
2019-04-11T02:53:36.795Z,1009.10
2019-04-11T02:54:36.680Z,1009.15
2019-04-11T02:55:35.946Z,1009.11
2019-04-11T02:56:36.496Z,1009.12
2019-04-11T02:57:36.241Z,1009.08
2019-04-11T02:58:36.932Z,1009.10
2019-04-11T02:59:36.369Z,1009.12
2019-04-11T03:00:37.590Z,1009.17
2019-04-11T03:01:36.316Z,1009.16
2019-04-11T03:02:37.051Z,1009.15
2019-04-11T03:03:37.384Z,1009.19
2019-04-11T03:04:37.016Z,1009.17
2019-04-11T03:05:47.036Z,1009.16
2019-04-11T03:06:36.139Z,1009.19
2019-04-11T03:07:36.071Z,1009.15
2019-04-11T03:08:36.606Z,1009.19
2019-04-11T03:09:37.286Z,1009.22
2019-04-11T03:10:37.601Z,1009.18
2019-04-11T03:11:35.588Z,1009.26
2019-04-11T03:12:36.030Z,1009.22
2019-04-11T03:13:37.486Z,1009.26
2019-04-11T03:14:49.151Z,1009.23
2019-04-11T03:15:48.802Z,1009.20
2019-04-11T03:16:49.167Z,1009.21
2019-04-11T03:17:42.103Z,1009.29
2019-04-11T03:18:54.961Z,1009.25
2019-04-11T03:19:47.726Z,1009.26
2019-04-11T03:20:43.586Z,1009.31
2019-04-11T03:21:41.162Z,1009.28
2019-04-11T03:22:38.290Z,1009.28
2019-04-11T03:23:37.207Z,1009.27
2019-04-11T03:24:36.018Z,1009.30
2019-04-11T03:25:36.408Z,1009.34
2019-04-11T03:26:35.673Z,1009.23
2019-04-11T03:27:37.257Z,1009.26
2019-04-11T03:28:37.756Z,1009.25
2019-04-11T03:29:36.346Z,1009.30
2019-04-11T03:30:54.084Z,1009.28
2019-04-11T03:32:18.356Z,1009.33
2019-04-11T03:33:29.932Z,1009.34
2019-04-11T03:34:24.893Z,1009.31
2019-04-11T03:36:27.390Z,1009.33
2019-04-11T03:37:58.791Z,1009.33
2019-04-11T03:38:55.216Z,1009.31
2019-04-11T03:39:57.173Z,1009.39
2019-04-11T03:40:56.742Z,1009.34
2019-04-11T03:41:52.070Z,1009.38
2019-04-11T03:42:50.278Z,1009.36
2019-04-11T03:43:48.604Z,1009.36
2019-04-11T03:44:42.754Z,1009.34
2019-04-11T03:45:52.718Z,1009.37
2019-04-11T03:46:49.278Z,1009.36
2019-04-11T03:47:48.384Z,1009.36
2019-04-11T03:48:46.739Z,1009.37
2019-04-11T03:49:44.701Z,1009.35
2019-04-11T03:50:37.185Z,1009.36
2019-04-11T03:51:36.423Z,1009.36
2019-04-11T03:52:36.563Z,1009.35
2019-04-11T03:53:37.138Z,1009.39
2019-04-11T03:54:36.716Z,1009.38
2019-04-11T03:55:35.131Z,1009.39
2019-04-11T03:56:35.208Z,1009.39
2019-04-11T03:57:35.092Z,1009.45
2019-04-11T03:58:35.076Z,1009.44
2019-04-11T03:59:36.646Z,1009.44
2019-04-11T04:00:37.147Z,1009.44
2019-04-11T04:01:35.951Z,1009.43
2019-04-11T04:02:36.750Z,1009.44
2019-04-11T04:03:36.690Z,1009.46
2019-04-11T04:04:35.303Z,1009.44
2019-04-11T04:05:36.870Z,1009.45
2019-04-11T04:06:34.995Z,1009.46
2019-04-11T04:07:46.609Z,1009.44
2019-04-11T04:08:36.310Z,1009.43
2019-04-11T04:09:35.340Z,1009.47
2019-04-11T04:10:36.140Z,1009.48
2019-04-11T04:11:34.973Z,1009.41
2019-04-11T04:12:35.691Z,1009.49
2019-04-11T04:13:36.649Z,1009.46
2019-04-11T04:14:36.920Z,1009.44
2019-04-11T04:15:45.452Z,1009.45
2019-04-11T04:16:41.353Z,1009.49
2019-04-11T04:17:36.013Z,1009.49
2019-04-11T04:18:36.261Z,1009.51
2019-04-11T04:19:35.449Z,1009.51
2019-04-11T04:20:35.252Z,1009.58
2019-04-11T04:21:35.183Z,1009.51
2019-04-11T04:22:35.641Z,1009.51
2019-04-11T04:23:35.865Z,1009.50
2019-04-11T04:24:39.111Z,1009.55
2019-04-11T04:25:36.803Z,1009.55
2019-04-11T04:26:35.556Z,1009.52
2019-04-11T04:27:35.407Z,1009.57
2019-04-11T04:28:35.694Z,1009.52
2019-04-11T04:29:37.046Z,1009.54
2019-04-11T04:30:36.060Z,1009.54
2019-04-11T04:31:35.095Z,1009.58
2019-04-11T04:32:36.074Z,1009.55
2019-04-11T04:33:36.293Z,1009.55
2019-04-11T04:34:36.046Z,1009.60
2019-04-11T04:35:36.345Z,1009.57
2019-04-11T04:36:34.856Z,1009.54
2019-04-11T04:37:34.892Z,1009.53
2019-04-11T04:38:46.480Z,1009.59
2019-04-11T04:39:36.763Z,1009.57
2019-04-11T04:40:49.537Z,1009.64
2019-04-11T04:41:41.326Z,1009.61
2019-04-11T04:42:40.192Z,1009.62
2019-04-11T04:43:36.480Z,1009.65
2019-04-11T04:44:34.584Z,1009.63
2019-04-11T04:45:54.449Z,1009.64
2019-04-11T04:46:52.648Z,1009.67
2019-04-11T04:47:42.288Z,1009.66
2019-04-11T04:48:35.548Z,1009.66
2019-04-11T04:49:36.391Z,1009.66
2019-04-11T04:50:36.544Z,1009.66
2019-04-11T04:51:35.154Z,1009.62
2019-04-11T04:52:36.002Z,1009.63
2019-04-11T04:53:35.465Z,1009.65
2019-04-11T04:54:35.082Z,1009.65
2019-04-11T04:55:34.855Z,1009.59
2019-04-11T04:56:35.512Z,1009.64
2019-04-11T04:57:35.832Z,1009.65
2019-04-11T04:58:34.458Z,1009.68
2019-04-11T04:59:37.471Z,1009.66
2019-04-11T05:00:34.894Z,1009.68
2019-04-11T05:01:35.089Z,1009.65
2019-04-11T05:02:35.414Z,1009.67
2019-04-11T05:03:34.701Z,1009.70
2019-04-11T05:04:36.122Z,1009.70
2019-04-11T05:05:35.656Z,1009.73
2019-04-11T05:06:34.639Z,1009.71
2019-04-11T05:07:39.808Z,1009.74
2019-04-11T05:08:35.387Z,1009.75
2019-04-11T05:09:45.807Z,1009.75
2019-04-11T05:10:35.831Z,1009.76
2019-04-11T05:11:34.287Z,1009.75
2019-04-11T05:12:34.655Z,1009.74
2019-04-11T05:13:34.588Z,1009.75
2019-04-11T05:14:35.057Z,1009.78
2019-04-11T05:15:34.554Z,1009.81
2019-04-11T05:16:35.587Z,1009.74
2019-04-11T05:17:34.608Z,1009.75
2019-04-11T05:18:34.319Z,1009.79
2019-04-11T05:19:34.199Z,1009.78
2019-04-11T05:20:34.330Z,1009.79
2019-04-11T05:21:35.146Z,1009.81
2019-04-11T05:22:35.217Z,1009.84
2019-04-11T05:23:34.157Z,1009.83
2019-04-11T05:24:34.800Z,1009.87
2019-04-11T05:25:34.814Z,1009.84
2019-04-11T05:26:35.434Z,1009.87
2019-04-11T05:27:34.110Z,1009.90
2019-04-11T05:28:35.231Z,1009.90
2019-04-11T05:29:34.090Z,1009.85
2019-04-11T05:30:34.086Z,1009.88
2019-04-11T05:31:34.453Z,1009.94
2019-04-11T05:32:34.134Z,1009.85
2019-04-11T05:33:34.982Z,1009.96
2019-04-11T05:34:35.133Z,1009.99
2019-04-11T05:35:34.479Z,1010.01
2019-04-11T05:36:34.049Z,1009.99
2019-04-11T05:37:33.995Z,1009.98
2019-04-11T05:38:33.989Z,1009.95
2019-04-11T05:39:33.973Z,1009.98
2019-04-11T05:40:43.990Z,1009.98
2019-04-11T05:41:33.956Z,1010.05
2019-04-11T05:42:33.984Z,1009.93
2019-04-11T05:43:37.262Z,1010.02
2019-04-11T05:44:37.596Z,1009.98
2019-04-11T05:45:33.914Z,1009.96
2019-04-11T05:46:47.257Z,1009.97
2019-04-11T05:47:35.237Z,1009.99
2019-04-11T05:48:34.776Z,1009.98
2019-04-11T05:49:37.256Z,1010.00
2019-04-11T05:50:36.004Z,1009.98
2019-04-11T05:51:41.614Z,1010.00
2019-04-11T05:52:35.291Z,1009.99
2019-04-11T05:53:36.221Z,1010.02
2019-04-11T05:54:36.494Z,1010.00
2019-04-11T05:55:34.207Z,1010.07
2019-04-11T05:56:33.792Z,1010.02
2019-04-11T05:57:38.105Z,1010.07
2019-04-11T05:58:34.567Z,1010.06
2019-04-11T05:59:34.718Z,1010.09
2019-04-11T06:00:34.697Z,1010.06
2019-04-11T06:01:34.087Z,1010.11
2019-04-11T06:02:33.729Z,1010.12
2019-04-11T06:03:34.315Z,1010.10
2019-04-11T06:04:34.392Z,1010.02
2019-04-11T06:05:35.453Z,1010.08
2019-04-11T06:06:37.761Z,1010.03
2019-04-11T06:07:35.075Z,1010.04
2019-04-11T06:08:33.663Z,1010.08
2019-04-11T06:09:38.183Z,1010.06
2019-04-11T06:10:37.059Z,1010.15
2019-04-11T06:12:46.472Z,1010.12
2019-04-11T06:13:46.837Z,1010.13
2019-04-11T06:14:47.179Z,1010.17
2019-04-11T06:15:47.221Z,1010.19
2019-04-11T06:16:51.896Z,1010.10
2019-04-11T06:17:48.180Z,1010.14
2019-04-11T06:18:46.398Z,1010.12
2019-04-11T06:19:46.389Z,1010.16
2019-04-11T06:20:47.239Z,1010.16
2019-04-11T06:21:46.470Z,1010.22
2019-04-11T06:22:46.356Z,1010.17
2019-04-11T06:23:47.639Z,1010.24
2019-04-11T06:24:46.330Z,1010.20
2019-04-11T06:25:46.921Z,1010.23
2019-04-11T06:26:47.034Z,1010.23
2019-04-11T06:27:47.398Z,1010.19
2019-04-11T06:28:47.328Z,1010.25
2019-04-11T06:29:47.319Z,1010.22
2019-04-11T06:30:46.460Z,1010.24
2019-04-11T06:31:47.435Z,1010.27
2019-04-11T06:32:46.245Z,1010.24
2019-04-11T06:33:46.975Z,1010.28
2019-04-11T06:34:47.146Z,1010.24
2019-04-11T06:35:46.355Z,1010.29
2019-04-11T06:36:46.914Z,1010.28
2019-04-11T06:37:46.207Z,1010.28
2019-04-11T06:38:47.088Z,1010.33
2019-04-11T06:39:47.298Z,1010.31
2019-04-11T06:40:46.161Z,1010.34
2019-04-11T06:41:46.531Z,1010.36
2019-04-11T06:42:53.877Z,1010.33
2019-04-11T06:43:46.164Z,1010.33
2019-04-11T06:44:46.138Z,1010.36
2019-04-11T06:45:46.197Z,1010.41
2019-04-11T06:46:52.339Z,1010.40
2019-04-11T06:47:47.219Z,1010.41
2019-04-11T06:48:46.070Z,1010.47
2019-04-11T06:49:46.756Z,1010.40
2019-04-11T06:50:46.915Z,1010.42
2019-04-11T06:51:46.319Z,1010.46
2019-04-11T06:52:46.022Z,1010.46
2019-04-11T06:53:46.208Z,1010.43
2019-04-11T06:54:46.051Z,1010.42
2019-04-11T06:55:46.828Z,1010.37
2019-04-11T06:56:45.989Z,1010.42
2019-04-11T06:57:45.978Z,1010.47
2019-04-11T06:58:45.960Z,1010.49
2019-04-11T06:59:45.948Z,1010.42
2019-04-11T07:00:45.977Z,1010.45
2019-04-11T07:01:45.927Z,1010.49
2019-04-11T07:02:46.601Z,1010.46
2019-04-11T07:03:46.872Z,1010.49
2019-04-11T07:04:46.309Z,1010.54
2019-04-11T07:05:46.842Z,1010.51
2019-04-11T07:06:46.041Z,1010.52
2019-04-11T07:07:46.098Z,1010.56
2019-04-11T07:08:46.928Z,1010.42
2019-04-11T07:09:46.928Z,1010.59
2019-04-11T07:10:46.716Z,1010.50
2019-04-11T07:11:45.821Z,1010.57
2019-04-11T07:12:47.050Z,1010.58
2019-04-11T07:13:57.527Z,1010.63
2019-04-11T07:14:45.792Z,1010.62
2019-04-11T07:15:46.444Z,1010.60
2019-04-11T07:16:46.798Z,1010.60
2019-04-11T07:17:45.951Z,1010.60
2019-04-11T07:18:46.473Z,1010.65
2019-04-11T07:19:45.914Z,1010.69
2019-04-11T07:20:45.901Z,1010.66
2019-04-11T07:21:46.160Z,1010.63
2019-04-11T07:22:46.620Z,1010.61
2019-04-11T07:23:46.910Z,1010.70
2019-04-11T07:24:45.692Z,1010.75
2019-04-11T07:25:45.717Z,1010.74
2019-04-11T07:26:45.897Z,1010.74
2019-04-11T07:27:45.644Z,1010.73
2019-04-11T07:28:45.897Z,1010.77
2019-04-11T07:29:46.464Z,1010.73
2019-04-11T07:30:45.609Z,1010.78
2019-04-11T07:31:46.223Z,1010.75
2019-04-11T07:32:45.602Z,1010.77
2019-04-11T07:33:45.589Z,1010.77
2019-04-11T07:34:45.790Z,1010.78
2019-04-11T07:35:45.559Z,1010.83
2019-04-11T07:36:46.218Z,1010.86
2019-04-11T07:37:47.170Z,1010.90
2019-04-11T07:38:47.517Z,1010.93
2019-04-11T07:39:45.512Z,1010.86
2019-04-11T07:40:45.553Z,1010.93
2019-04-11T07:41:45.834Z,1010.85
2019-04-11T07:42:46.748Z,1010.94
2019-04-11T07:43:45.568Z,1010.96
2019-04-11T07:44:57.622Z,1010.97
2019-04-11T07:45:45.442Z,1010.93
2019-04-11T07:46:45.467Z,1010.98
2019-04-11T07:47:46.082Z,1010.96
2019-04-11T07:48:45.412Z,1011.02
2019-04-11T07:49:45.402Z,1010.93
2019-04-11T07:50:46.438Z,1011.01
2019-04-11T07:51:45.380Z,1011.06
2019-04-11T07:52:45.374Z,1011.10
2019-04-11T07:53:45.948Z,1011.05
2019-04-11T07:54:45.695Z,1011.09
2019-04-11T07:55:46.508Z,1011.13
2019-04-11T07:56:46.328Z,1011.07
2019-04-11T07:57:45.347Z,1011.09
2019-04-11T07:58:45.756Z,1011.08
2019-04-11T07:59:45.290Z,1011.08
2019-04-11T08:00:49.395Z,1011.09
2019-04-11T08:01:46.934Z,1011.08
2019-04-11T08:02:45.658Z,1011.06
2019-04-11T08:03:45.281Z,1011.11
2019-04-11T08:04:45.245Z,1011.08
2019-04-11T08:05:45.226Z,1011.04
2019-04-11T08:06:45.683Z,1011.09
2019-04-11T08:07:45.199Z,1011.11
2019-04-11T08:08:45.187Z,1011.12
2019-04-11T08:09:45.192Z,1011.12
2019-04-11T08:10:45.729Z,1011.13
2019-04-11T08:11:45.149Z,1011.16
2019-04-11T08:12:45.798Z,1011.17
2019-04-11T08:13:45.140Z,1011.15
2019-04-11T08:14:45.116Z,1011.14
2019-04-11T08:15:57.876Z,1011.15
2019-04-11T08:16:45.092Z,1011.13
2019-04-11T08:17:46.023Z,1011.14
2019-04-11T08:18:45.380Z,1011.14
2019-04-11T08:19:45.062Z,1011.16
2019-04-11T08:20:45.686Z,1011.14
2019-04-11T08:21:46.128Z,1011.20
2019-04-11T08:22:45.473Z,1011.17
2019-04-11T08:23:45.727Z,1011.18
2019-04-11T08:24:45.011Z,1011.22
2019-04-11T08:25:45.310Z,1011.23
2019-04-11T08:26:44.988Z,1011.27
2019-04-11T08:27:54.880Z,1011.27
2019-04-11T08:28:45.964Z,1011.27
2019-04-11T08:29:47.585Z,1011.31
2019-04-11T08:30:44.945Z,1011.30
2019-04-11T08:31:44.965Z,1011.31
2019-04-11T08:32:44.918Z,1011.34
2019-04-11T08:33:44.907Z,1011.33
2019-04-11T08:34:45.904Z,1011.32
2019-04-11T08:35:45.190Z,1011.33
2019-04-11T08:36:44.876Z,1011.30
2019-04-11T08:37:45.522Z,1011.36
2019-04-11T08:38:44.857Z,1011.30
2019-04-11T08:39:45.052Z,1011.31
2019-04-11T08:40:45.223Z,1011.33
2019-04-11T08:41:44.826Z,1011.38
2019-04-11T08:42:44.815Z,1011.37
2019-04-11T08:43:45.537Z,1011.37
2019-04-11T08:44:44.793Z,1011.43
2019-04-11T08:45:44.773Z,1011.43
2019-04-11T08:46:56.564Z,1011.41
2019-04-11T08:47:50.357Z,1011.44
2019-04-11T08:48:45.789Z,1011.40
2019-04-11T08:49:45.848Z,1011.44
2019-04-11T08:50:44.994Z,1011.46
2019-04-11T08:51:44.710Z,1011.47
2019-04-11T08:52:44.697Z,1011.44
2019-04-11T08:53:44.894Z,1011.49
2019-04-11T08:54:45.864Z,1011.49
2019-04-11T08:55:51.907Z,1011.48
2019-04-11T08:56:45.654Z,1011.49
2019-04-11T08:57:44.656Z,1011.49
2019-04-11T08:58:44.901Z,1011.51
2019-04-11T08:59:45.833Z,1011.49
2019-04-11T09:00:44.639Z,1011.55
2019-04-11T09:01:45.999Z,1011.56
2019-04-11T09:02:45.010Z,1011.57
2019-04-11T09:03:56.559Z,1011.56
2019-04-11T09:04:46.248Z,1011.62
2019-04-11T09:05:44.556Z,1011.62
2019-04-11T09:06:45.046Z,1011.66
2019-04-11T09:07:45.666Z,1011.61
2019-04-11T09:08:44.816Z,1011.66
2019-04-11T09:09:45.594Z,1011.62
2019-04-11T09:10:44.493Z,1011.61
2019-04-11T09:11:44.788Z,1011.62
2019-04-11T09:12:44.838Z,1011.64
2019-04-11T09:13:44.460Z,1011.59
2019-04-11T09:14:44.594Z,1011.59
2019-04-11T09:15:45.380Z,1011.56
2019-04-11T09:16:44.428Z,1011.54
2019-04-11T09:18:03.469Z,1011.60
2019-04-11T09:18:46.108Z,1011.68
2019-04-11T09:19:45.307Z,1011.65
2019-04-11T09:20:45.496Z,1011.70
2019-04-11T09:21:44.614Z,1011.69
2019-04-11T09:22:44.956Z,1011.76
2019-04-11T09:23:44.393Z,1011.75
2019-04-11T09:24:44.339Z,1011.73
2019-04-11T09:25:45.418Z,1011.74
2019-04-11T09:26:44.467Z,1011.82
2019-04-11T09:27:44.854Z,1011.80
2019-04-11T09:28:44.301Z,1011.84
2019-04-11T09:29:44.294Z,1011.84
2019-04-11T09:30:45.204Z,1011.83
2019-04-11T09:31:45.556Z,1011.91
2019-04-11T09:32:44.474Z,1011.86
2019-04-11T09:33:44.913Z,1011.86
2019-04-11T09:34:44.277Z,1011.88
2019-04-11T09:35:44.219Z,1011.89
2019-04-11T09:36:45.197Z,1012.01
2019-04-11T09:37:44.552Z,1011.92
2019-04-11T09:38:44.365Z,1011.96
2019-04-11T09:39:45.465Z,1011.96
2019-04-11T09:40:44.213Z,1011.99
2019-04-11T09:41:44.822Z,1011.96
2019-04-11T09:42:45.000Z,1011.95
2019-04-11T09:43:44.338Z,1011.97
2019-04-11T09:44:44.802Z,1011.95
2019-04-11T09:45:44.106Z,1011.99
2019-04-11T09:46:44.113Z,1012.03
2019-04-11T09:47:44.088Z,1011.98
2019-04-11T09:48:54.482Z,1012.03
2019-04-11T09:49:45.032Z,1012.03
2019-04-11T09:50:44.752Z,1012.05
2019-04-11T09:51:44.318Z,1012.06
2019-04-11T09:52:45.222Z,1012.05
2019-04-11T09:53:45.064Z,1012.10
2019-04-11T09:54:44.256Z,1012.13
2019-04-11T09:55:43.994Z,1012.15
2019-04-11T09:56:45.060Z,1012.14
2019-04-11T09:57:44.208Z,1012.15
2019-04-11T09:58:44.243Z,1012.23
2019-04-11T09:59:43.953Z,1012.17
2019-04-11T10:00:45.164Z,1012.15
2019-04-11T10:01:45.148Z,1012.19
2019-04-11T10:02:44.126Z,1012.24
2019-04-11T10:03:45.045Z,1012.25
2019-04-11T10:04:43.900Z,1012.21
2019-04-11T10:05:44.816Z,1012.28
2019-04-11T10:06:44.568Z,1012.26
2019-04-11T10:07:44.208Z,1012.28
2019-04-11T10:08:43.852Z,1012.31
2019-04-11T10:09:44.221Z,1012.39
2019-04-11T10:10:46.201Z,1012.37
2019-04-11T10:11:43.820Z,1012.42
2019-04-11T10:12:44.602Z,1012.37
2019-04-11T10:13:44.947Z,1012.39
2019-04-11T10:14:43.989Z,1012.37
2019-04-11T10:15:43.822Z,1012.35
2019-04-11T10:16:44.353Z,1012.40
2019-04-11T10:17:43.758Z,1012.40
2019-04-11T10:18:44.326Z,1012.46
2019-04-11T10:19:54.376Z,1012.39
2019-04-11T10:20:44.583Z,1012.39
2019-04-11T10:21:43.756Z,1012.41
2019-04-11T10:22:43.983Z,1012.39
2019-04-11T10:23:45.053Z,1012.44
2019-04-11T10:24:43.680Z,1012.45
2019-04-11T10:25:43.666Z,1012.49
2019-04-11T10:26:44.531Z,1012.53
2019-04-11T10:27:44.677Z,1012.54
2019-04-11T10:28:43.969Z,1012.57
2019-04-11T10:29:44.067Z,1012.58
2019-04-11T10:30:44.132Z,1012.54
2019-04-11T10:31:44.373Z,1012.55
2019-04-11T10:32:43.588Z,1012.61
2019-04-11T10:33:44.783Z,1012.55
2019-04-11T10:34:43.869Z,1012.59
2019-04-11T10:35:43.548Z,1012.63
2019-04-11T10:36:43.540Z,1012.63
2019-04-11T10:37:44.294Z,1012.64
2019-04-11T10:38:44.639Z,1012.61
2019-04-11T10:39:43.812Z,1012.58
2019-04-11T10:40:44.140Z,1012.62
2019-04-11T10:41:44.187Z,1012.63
2019-04-11T10:42:44.461Z,1012.55
2019-04-11T10:43:44.605Z,1012.67
2019-04-11T10:44:43.491Z,1012.58
2019-04-11T10:45:43.444Z,1012.59
2019-04-11T10:46:43.896Z,1012.63
2019-04-11T10:47:43.418Z,1012.66
2019-04-11T10:48:45.325Z,1012.65
2019-04-11T10:49:44.197Z,1012.72
2019-04-11T10:50:53.991Z,1012.71
2019-04-11T10:51:43.366Z,1012.71
2019-04-11T10:52:44.586Z,1012.72
2019-04-11T10:53:43.713Z,1012.76
2019-04-11T10:54:43.333Z,1012.79
2019-04-11T10:55:44.125Z,1012.81
2019-04-11T10:56:43.375Z,1012.81
2019-04-11T10:57:44.466Z,1012.81
2019-04-11T10:58:43.288Z,1012.86
2019-04-11T10:59:43.284Z,1012.82
2019-04-11T11:00:43.292Z,1012.83
2019-04-11T11:01:44.311Z,1012.79
2019-04-11T11:02:43.252Z,1012.79
2019-04-11T11:03:43.236Z,1012.83
2019-04-11T11:04:43.226Z,1012.86
2019-04-11T11:05:43.209Z,1012.81
2019-04-11T11:06:44.946Z,1012.84
2019-04-11T11:07:43.193Z,1012.84
2019-04-11T11:08:43.745Z,1012.81
2019-04-11T11:09:44.331Z,1012.83
2019-04-11T11:10:43.846Z,1012.92
2019-04-11T11:11:44.166Z,1012.93
2019-04-11T11:12:43.485Z,1012.89
2019-04-11T11:13:43.126Z,1012.91
2019-04-11T11:14:43.108Z,1012.92
2019-04-11T11:15:44.041Z,1012.95
2019-04-11T11:16:45.440Z,1012.92
2019-04-11T11:18:00.970Z,1012.90
2019-04-11T11:19:14.952Z,1012.91
2019-04-11T11:19:57.325Z,1012.90
2019-04-11T11:20:50.062Z,1012.89
2019-04-11T11:22:56.911Z,1012.92
2019-04-11T11:23:57.052Z,1012.96
2019-04-11T11:24:57.986Z,1012.90
2019-04-11T11:25:56.803Z,1012.97
2019-04-11T11:26:58.674Z,1013.01
2019-04-11T11:27:57.834Z,1013.00
2019-04-11T11:28:56.862Z,1013.00
2019-04-11T11:29:58.141Z,1012.99
2019-04-11T11:30:56.754Z,1013.03
2019-04-11T11:31:56.742Z,1012.96
2019-04-11T11:32:58.018Z,1013.02
2019-04-11T11:33:56.717Z,1013.02
2019-04-11T11:34:56.981Z,1013.03
2019-04-11T11:36:00.540Z,1013.03
2019-04-11T11:36:58.621Z,1013.06
2019-04-11T11:37:57.543Z,1013.10
2019-04-11T11:38:56.664Z,1013.09
2019-04-11T11:40:02.563Z,1013.11
2019-04-11T11:40:58.442Z,1013.16
2019-04-11T11:41:56.631Z,1013.14
2019-04-11T11:42:56.662Z,1013.13
2019-04-11T11:43:57.109Z,1013.13
2019-04-11T11:44:57.291Z,1013.15
2019-04-11T11:45:56.955Z,1013.19
2019-04-11T11:46:59.839Z,1013.19
2019-04-11T11:47:59.684Z,1013.22
2019-04-11T11:48:59.217Z,1013.25
2019-04-11T11:50:00.557Z,1013.22
2019-04-11T11:50:57.532Z,1013.21
2019-04-11T11:51:59.358Z,1013.19
2019-04-11T11:53:07.822Z,1013.21
2019-04-11T11:53:57.503Z,1013.23
2019-04-11T11:54:56.772Z,1013.22
2019-04-11T11:55:56.481Z,1013.25
2019-04-11T11:56:56.460Z,1013.24
2019-04-11T11:57:57.268Z,1013.26
2019-04-11T11:58:58.116Z,1013.20
2019-04-11T11:59:56.611Z,1013.22
2019-04-11T12:00:57.835Z,1013.23
2019-04-11T12:01:56.410Z,1013.31
2019-04-11T12:02:56.956Z,1013.23
2019-04-11T12:04:00.257Z,1013.24
2019-04-11T12:04:57.377Z,1013.23
2019-04-11T12:05:56.653Z,1013.22
2019-04-11T12:07:01.680Z,1013.29
2019-04-11T12:07:58.085Z,1013.28
2019-04-11T12:08:56.326Z,1013.32
2019-04-11T12:09:56.362Z,1013.29